Star Quality — 9V9355 — position and weather

sailwx.info

Track history (hours):
 
Tides and Currents Weather Stations Pressure Air Temp Water Temp Dewpoint Dewpoint Depression Visibility Wind Speed Wind Dir Waves Ship Positions

Star Quality

Last reported at 2018-Jun-05 08:37 UTC. Time now 2018-Jun-18 11:21 UTC.
Position N 37°21' W 029°41'.
Warning: this ship's position is 13 days out of date.

Length 163 m; draft 8.5 m.

Type: Cargo ship. MMSI: 566059000.

Date/timePositionNaut miles runAvg speedWind from/ knotsBaromVisibWave heightAir tempDewpointWater temp
2018-Jun-05 08:37N 37°21' W 029°41'320.9
2018-Jun-05 08:29N 37°22' W 029°38'1020.9
2018-Jun-05 08:01N 37°27' W 029°27'1020.7
2018-Jun-05 07:30N 37°32' W 029°16'1020.6
2018-Jun-05 07:00N 37°37' W 029°04'1021.0
2018-Jun-05 06:31N 37°41' W 028°52'1020.5
2018-Jun-05 06:00N 37°46' W 028°41'1020.8
2018-Jun-05 05:30N 37°51' W 028°29'1020.7
2018-Jun-05 05:01N 37°56' W 028°18'1121.0
2018-Jun-05 04:30N 38°01' W 028°06'1121.5
2018-Jun-05 04:00N 38°06' W 027°54'1120.9
2018-Jun-05 03:30N 38°11' W 027°42'1020.8
2018-Jun-05 03:01N 38°15' W 027°30'1020.8
2018-Jun-05 02:30N 38°20' W 027°19'1020.9
2018-Jun-05 02:00N 38°25' W 027°07'1021.0
2018-Jun-05 01:31N 38°30' W 026°55'1121.1
2018-Jun-05 01:00N 38°37' W 026°44'1020.9
2018-Jun-05 00:30N 38°43' W 026°33'1021.0
2018-Jun-05 00:01N 38°49' W 026°22'1120.8
2018-Jun-04 23:30N 38°55' W 026°11'1220.9
2018-Jun-04 22:57N 39°01' W 025°59'104921.4
2018-Jun-02 21:49N 49°01' W 006°02'1021.8
2018-Jun-02 21:22N 49°06' W 005°49'821.5
2018-Jun-02 20:58N 49°11' W 005°39'1021.2
2018-Jun-02 20:30N 49°17' W 005°26'6817.9
2018-Jun-02 16:41N 49°45' W 003°50'421.1
2018-Jun-02 16:31N 49°46' W 003°45'1221.4
2018-Jun-02 15:58N 49°50' W 003°28'1021.8
2018-Jun-02 15:31N 49°53' W 003°14'1121.9
2018-Jun-02 15:00N 49°57' W 002°58'1122.2
2018-Jun-02 14:30N 50°01' W 002°41'1121.8
2018-Jun-02 14:00N 50°04' W 002°25'1121.2
2018-Jun-02 13:30N 50°06' W 002°09'1020.6
2018-Jun-02 13:00N 50°09' W 001°53'1019.7
2018-Jun-02 12:30N 50°12' W 001°39'919.0
2018-Jun-02 12:00N 50°15' W 001°25'918.0
2018-Jun-02 11:31N 50°17' W 001°11'917.6
2018-Jun-02 11:01N 50°20' W 000°58'917.4
2018-Jun-02 10:30N 50°22' W 000°45'917.4
2018-Jun-02 10:00N 50°25' W 000°32'918.2
2018-Jun-02 09:31N 50°27' W 000°18'1019.0
2018-Jun-02 09:00N 50°30' W 000°03'1019.7
2018-Jun-02 08:29N 50°33' E 000°12'1020.5
2018-Jun-02 08:00N 50°36' E 000°27'1020.8
2018-Jun-02 07:31N 50°40' E 000°41'1121.4
2018-Jun-02 07:00N 50°46' E 000°56'1121.3
2018-Jun-02 06:30N 50°52' E 001°10'1121.0
2018-Jun-02 05:59N 50°59' E 001°23'1020.2
2018-Jun-02 05:30N 51°06' E 001°34'918.9
2018-Jun-02 05:00N 51°12' E 001°44'918.8
2018-Jun-02 04:30N 51°20' E 001°53'816.4
2018-Jun-02 04:00N 51°25' E 002°04'1019.4
2018-Jun-02 03:31N 51°21' E 002°18'917.8
2018-Jun-02 03:00N 51°23' E 002°32'713.7
2018-Jun-02 02:30N 51°23' E 002°43'611.4
2018-Jun-02 02:00N 51°23' E 002°52'814.0
2018-Jun-02 01:25N 51°24' E 003°05'614.0
2018-Jun-02 01:00N 51°25' E 003°14'714.4
2018-Jun-02 00:30N 51°25' E 003°26'613.0
2018-Jun-02 00:00N 51°26' E 003°36'5 9.0
2018-Jun-01 23:31N 51°28' E 003°42'1 1.3
2018-Jun-01 22:59N 51°29' E 003°42'0 0.0
2018-Jun-01 22:29N 51°29' E 003°42'0 0.0
2018-Jun-01 21:59N 51°29' E 003°42'0 0.0
2018-Jun-01 21:20N 51°29' E 003°42'0 0.0
2018-Jun-01 20:56N 51°29' E 003°42'0 0.0
2018-Jun-01 20:29N 51°29' E 003°42'0 0.0
2018-Jun-01 19:59N 51°29' E 003°42'0 0.0
2018-Jun-01 19:26N 51°29' E 003°42'0 0.0
2018-Jun-01 18:59N 51°29' E 003°42'0 0.0
2018-Jun-01 18:26N 51°29' E 003°42'0 0.0
2018-Jun-01 17:53N 51°29' E 003°42'0 0.0
2018-Jun-01 17:23N 51°29' E 003°42'0 0.0
2018-Jun-01 16:59N 51°29' E 003°42'0 0.0
2018-Jun-01 16:23N 51°29' E 003°42'0 0.0
2018-Jun-01 15:50N 51°29' E 003°42'0 0.0
2018-Jun-01 15:23N 51°29' E 003°42'0 0.0
2018-Jun-01 14:47N 51°29' E 003°42'0 0.0
2018-Jun-01 14:29N 51°29' E 003°42'0 0.0
2018-Jun-01 13:59N 51°29' E 003°42'0 0.0
2018-Jun-01 13:29N 51°29' E 003°42'0 0.0
2018-Jun-01 12:53N 51°29' E 003°42'0 0.0
2018-Jun-01 12:20N 51°29' E 003°42'0 0.0
2018-Jun-01 11:50N 51°29' E 003°42'0 0.0
2018-Jun-01 11:29N 51°29' E 003°42'0 0.0
2018-Jun-01 10:59N 51°29' E 003°42'0 0.0
2018-Jun-01 10:26N 51°29' E 003°42'0 0.0
2018-Jun-01 09:50N 51°29' E 003°42'0 0.0
2018-Jun-01 09:29N 51°29' E 003°42'0 0.0
2018-Jun-01 08:59N 51°29' E 003°42'0 0.0
2018-Jun-01 08:29N 51°29' E 003°42'0 0.0
2018-Jun-01 07:56N 51°29' E 003°42'0 0.0
2018-Jun-01 07:29N 51°29' E 003°42'0 0.0
2018-Jun-01 06:59N 51°29' E 003°42'0 0.0
2018-Jun-01 06:29N 51°29' E 003°42'0 0.0
2018-Jun-01 05:59N 51°29' E 003°42'0 0.0
2018-Jun-01 05:29N 51°29' E 003°42'0 0.0
2018-Jun-01 04:59N 51°29' E 003°42'0 0.0
2018-Jun-01 04:29N 51°29' E 003°42'0 0.0
2018-Jun-01 03:59N 51°29' E 003°42'0 0.0
2018-Jun-01 03:26N 51°29' E 003°42'0 0.0
2018-Jun-01 02:47N 51°29' E 003°42'0 0.0
2018-Jun-01 02:29N 51°29' E 003°42'0 0.0
2018-Jun-01 01:56N 51°29' E 003°42'0 0.0
2018-Jun-01 01:29N 51°29' E 003°42'0 0.0
2018-Jun-01 00:59N 51°29' E 003°42'0 0.0
2018-Jun-01 00:29N 51°29' E 003°42'0 0.0
2018-May-31 23:59N 51°29' E 003°42'0 0.0
2018-May-31 23:23N 51°29' E 003°42'0 0.0
2018-May-31 22:59N 51°29' E 003°42'0 0.0
2018-May-31 22:29N 51°29' E 003°42'0 0.0
2018-May-31 21:53N 51°29' E 003°42'0 0.0
2018-May-31 21:23N 51°29' E 003°42'0 0.0
2018-May-31 20:50N 51°29' E 003°42'0 0.0
2018-May-31 20:20N 51°29' E 003°42'0 0.0
2018-May-31 19:47N 51°29' E 003°42'0 0.0
2018-May-31 19:29N 51°29' E 003°42'0 0.0
2018-May-31 18:59N 51°29' E 003°42'0 0.0
2018-May-31 17:44N 51°29' E 003°42'0 0.0
2018-May-31 17:17N 51°29' E 003°42'0 0.0
2018-May-31 16:59N 51°29' E 003°42'0 0.0
2018-May-31 16:29N 51°29' E 003°42'0 0.0
2018-May-31 15:47N 51°29' E 003°42'0 0.0
2018-May-31 15:29N 51°29' E 003°42'0 0.0
2018-May-31 14:53N 51°29' E 003°42'0 0.0
2018-May-31 14:23N 51°29' E 003°42'0 0.0
2018-May-31 13:59N 51°29' E 003°42'0 0.0
2018-May-31 13:29N 51°29' E 003°42'0 0.0
2018-May-31 12:53N 51°29' E 003°42'0 0.0
2018-May-31 12:29N 51°29' E 003°42'0 0.0
2018-May-31 11:59N 51°29' E 003°42'0 0.0
2018-May-31 11:14N 51°29' E 003°42'0 0.0
2018-May-31 10:47N 51°29' E 003°42'0 0.0
2018-May-31 10:17N 51°29' E 003°42'0 0.0
2018-May-31 09:59N 51°29' E 003°42'0 0.0
2018-May-31 09:29N 51°29' E 003°42'0 0.0
2018-May-31 08:59N 51°29' E 003°42'0 0.0
2018-May-31 08:29N 51°29' E 003°42'0 0.0
2018-May-31 07:59N 51°29' E 003°42'0 0.0
2018-May-31 07:11N 51°29' E 003°42'0 0.0
2018-May-31 06:59N 51°29' E 003°42'0 0.0
2018-May-31 06:02N 51°29' E 003°42'0 0.0
2018-May-31 05:59N 51°29' E 003°42'0 0.0
2018-May-31 05:17N 51°29' E 003°42'0 0.0
2018-May-31 04:50N 51°29' E 003°42'0 0.0
2018-May-31 04:26N 51°29' E 003°42'0 0.0
2018-May-31 03:59N 51°29' E 003°42'0 0.0
2018-May-31 03:29N 51°29' E 003°42'0 0.0
2018-May-31 02:38N 51°29' E 003°42'0 0.0
2018-May-31 02:29N 51°29' E 003°42'0 0.0
2018-May-31 01:53N 51°29' E 003°42'0 0.0
2018-May-31 01:29N 51°29' E 003°42'0 0.0
2018-May-31 00:59N 51°29' E 003°42'0 0.0
2018-May-31 00:14N 51°29' E 003°42'0 0.0
2018-May-30 23:59N 51°29' E 003°42'0 0.0
2018-May-30 23:23N 51°29' E 003°42'0 0.1
2018-May-30 22:53N 51°29' E 003°42'0 0.0
2018-May-30 22:29N 51°29' E 003°42'0 0.0
2018-May-30 21:59N 51°29' E 003°42'0 0.0
2018-May-30 21:23N 51°29' E 003°42'0 0.0
2018-May-30 20:59N 51°29' E 003°42'0 0.0
2018-May-30 20:23N 51°29' E 003°42'0 0.0
2018-May-30 19:56N 51°29' E 003°42'0 0.0
2018-May-30 19:29N 51°29' E 003°42'0 0.0
2018-May-30 18:59N 51°29' E 003°42'0 0.0
2018-May-30 18:29N 51°29' E 003°42'0 0.0
2018-May-30 17:59N 51°29' E 003°42'0 0.0
2018-May-30 17:29N 51°29' E 003°42'0 0.0
2018-May-30 16:59N 51°29' E 003°42'0 0.0
2018-May-30 16:17N 51°29' E 003°42'0 0.0
2018-May-30 15:56N 51°29' E 003°42'0 0.0
2018-May-30 15:23N 51°29' E 003°42'0 0.0
2018-May-30 14:59N 51°29' E 003°42'0 0.0
2018-May-30 14:29N 51°29' E 003°42'0 0.0
2018-May-30 13:47N 51°29' E 003°42'0 0.0
2018-May-30 13:11N 51°29' E 003°42'0 0.0
2018-May-30 12:59N 51°29' E 003°42'0 0.0
2018-May-30 12:29N 51°29' E 003°42'0 0.0
2018-May-30 11:53N 51°29' E 003°42'0 0.0
2018-May-30 11:29N 51°29' E 003°42'0 0.0
2018-May-30 10:59N 51°29' E 003°42'0 0.0
2018-May-30 10:20N 51°29' E 003°42'0 0.0
2018-May-30 09:59N 51°29' E 003°42'0 0.0
2018-May-30 09:29N 51°29' E 003°42'0 0.0
2018-May-30 08:59N 51°29' E 003°42'0 0.0
2018-May-30 08:17N 51°29' E 003°42'0 0.0
2018-May-30 07:50N 51°29' E 003°42'0 0.0
2018-May-30 07:29N 51°29' E 003°42'0 0.0
2018-May-30 06:47N 51°29' E 003°42'0 0.0
2018-May-30 06:26N 51°29' E 003°42'0 0.0
2018-May-30 05:59N 51°29' E 003°42'0 0.0
2018-May-30 05:20N 51°29' E 003°42'0 0.0
2018-May-30 04:50N 51°29' E 003°42'0 0.0
2018-May-30 04:26N 51°29' E 003°42'0 0.0
2018-May-30 03:47N 51°29' E 003°42'0 0.0
2018-May-30 03:29N 51°29' E 003°42'0 0.0
2018-May-30 02:56N 51°29' E 003°42'0 0.0
2018-May-30 02:26N 51°29' E 003°42'0 0.0
2018-May-30 01:59N 51°29' E 003°42'0 0.0
2018-May-30 01:23N 51°29' E 003°42'0 0.0
2018-May-30 00:47N 51°29' E 003°42'0 0.0
2018-May-30 00:29N 51°29' E 003°42'0 0.0
2018-May-29 23:56N 51°29' E 003°42'0 0.0
2018-May-29 23:26N 51°29' E 003°42'0 0.0
2018-May-29 22:59N 51°29' E 003°42'0 0.0
2018-May-29 22:29N 51°29' E 003°42'0 0.0
2018-May-29 21:56N 51°29' E 003°42'0 0.0
2018-May-29 21:29N 51°29' E 003°42'0 0.0
2018-May-29 20:29N 51°29' E 003°42'0 0.0
2018-May-29 19:59N 51°29' E 003°42'0 0.0
2018-May-29 19:23N 51°29' E 003°42'0 0.4
2018-May-29 19:00N 51°28' E 003°42'2 4.8
2018-May-29 18:30N 51°27' E 003°40'4 8.6
2018-May-29 18:00N 51°25' E 003°33'611.6
2018-May-29 17:30N 51°25' E 003°24'713.5
2018-May-29 16:58N 51°24' E 003°13'714.3
2018-May-29 16:29N 51°24' E 003°02'715.4
2018-May-29 16:00N 51°22' E 002°50'714.2
2018-May-29 15:31N 51°22' E 002°39'611.0
2018-May-29 14:59N 51°22' E 002°30'817.3
2018-May-29 14:30N 51°18' E 002°18'815.8
2018-May-29 14:00N 51°20' E 002°06'815.1
2018-May-29 13:30N 51°26' E 001°57'713.2
2018-May-29 13:00N 51°30' E 001°49'917.0
2018-May-29 12:30N 51°29' E 001°35'611.1
2018-May-29 12:01N 51°27' E 001°27'714.1
2018-May-29 11:31N 51°29' E 001°16'3 0.2
2018-May-28 20:39N 51°29' E 001°12'316.9
2018-May-28 20:30N 51°29' E 001°16'816.3
2018-May-28 20:00N 51°27' E 001°28'4 8.7
2018-May-28 19:30N 51°24' E 001°33'3 5.5
2018-May-28 19:01N 51°23' E 001°37'4 8.5
2018-May-28 18:31N 51°20' E 001°41'3 6.5
2018-May-28 18:01N 51°16' E 001°39'3 6.7
2018-May-28 17:30N 51°13' E 001°38'3 6.3
2018-May-28 17:01N 51°10' E 001°36'4 7.6
2018-May-28 16:30N 51°07' E 001°39'511.0
2018-May-28 16:00N 51°02' E 001°35'714.2
2018-May-28 15:31N 50°57' E 001°28'713.8
2018-May-28 14:58N 50°50' E 001°24'714.2
2018-May-28 14:30N 50°43' E 001°22'713.8
2018-May-28 14:00N 50°38' E 001°15'914.1
2018-May-28 13:23N 50°33' E 001°04'614.6
2018-May-28 13:00N 50°29' E 000°57'915.1
2018-May-28 12:25N 50°27' E 000°43'915.3
2018-May-28 11:49N 50°25' E 000°30'413.2
2018-May-28 11:30N 50°24' E 000°23'713.4
2018-May-28 11:00N 50°22' E 000°13'713.8
2018-May-28 10:30N 50°20' E 000°03'713.8
2018-May-28 09:59N 50°19' W 000°08'713.7
2018-May-28 09:30N 50°17' W 000°18'714.4
2018-May-28 09:00N 50°16' W 000°30'1115.0
2018-May-28 08:17N 50°13' W 000°46'615.4
2018-May-28 07:55N 50°11' W 000°54'4116.0
2018-May-28 05:21N 50°00' W 001°56'1115.7
2018-May-28 04:40N 49°57' W 002°12'315.9
2018-May-28 04:31N 49°57' W 002°16'815.6
2018-May-28 04:01N 49°55' W 002°28'815.4
2018-May-28 03:30N 49°53' W 002°39'815.7
2018-May-28 03:00N 49°50' W 002°51'815.5
2018-May-28 02:29N 49°48' W 003°03'715.2
2018-May-28 02:01N 49°45' W 003°13'815.4
2018-May-28 01:31N 49°43' W 003°25'815.3
2018-May-28 01:01N 49°41' W 003°36'815.1
2018-May-28 00:30N 49°39' W 003°47'  
Track history (hours):
 
Tides and Currents Weather Stations Pressure Air Temp Water Temp Dewpoint Dewpoint Depression Visibility Wind Speed Wind Dir Waves Ship Positions

Star Quality

Last reported at 2018-Jun-05 08:37 UTC. Time now 2018-Jun-18 11:21 UTC.
Position N 37°21' W 029°41'.
Warning: this ship's position is 13 days out of date.

Length 163 m; draft 8.5 m.

Type: Cargo ship. MMSI: 566059000.

Date/timePositionNaut miles runAvg speedWind from/ knotsBaromVisibWave heightAir tempDewpointWater temp
2018-Jun-05 08:37N 37°21' W 029°41'320.9
2018-Jun-05 08:29N 37°22' W 029°38'1020.9
2018-Jun-05 08:01N 37°27' W 029°27'1020.7
2018-Jun-05 07:30N 37°32' W 029°16'1020.6
2018-Jun-05 07:00N 37°37' W 029°04'1021.0
2018-Jun-05 06:31N 37°41' W 028°52'1020.5
2018-Jun-05 06:00N 37°46' W 028°41'1020.8
2018-Jun-05 05:30N 37°51' W 028°29'1020.7
2018-Jun-05 05:01N 37°56' W 028°18'1121.0
2018-Jun-05 04:30N 38°01' W 028°06'1121.5
2018-Jun-05 04:00N 38°06' W 027°54'1120.9
2018-Jun-05 03:30N 38°11' W 027°42'1020.8
2018-Jun-05 03:01N 38°15' W 027°30'1020.8
2018-Jun-05 02:30N 38°20' W 027°19'1020.9
2018-Jun-05 02:00N 38°25' W 027°07'1021.0
2018-Jun-05 01:31N 38°30' W 026°55'1121.1
2018-Jun-05 01:00N 38°37' W 026°44'1020.9
2018-Jun-05 00:30N 38°43' W 026°33'1021.0
2018-Jun-05 00:01N 38°49' W 026°22'1120.8
2018-Jun-04 23:30N 38°55' W 026°11'1220.9
2018-Jun-04 22:57N 39°01' W 025°59'104921.4
2018-Jun-02 21:49N 49°01' W 006°02'1021.8
2018-Jun-02 21:22N 49°06' W 005°49'821.5
2018-Jun-02 20:58N 49°11' W 005°39'1021.2
2018-Jun-02 20:30N 49°17' W 005°26'6817.9
2018-Jun-02 16:41N 49°45' W 003°50'421.1
2018-Jun-02 16:31N 49°46' W 003°45'1221.4
2018-Jun-02 15:58N 49°50' W 003°28'1021.8
2018-Jun-02 15:31N 49°53' W 003°14'1121.9
2018-Jun-02 15:00N 49°57' W 002°58'1122.2
2018-Jun-02 14:30N 50°01' W 002°41'1121.8
2018-Jun-02 14:00N 50°04' W 002°25'1121.2
2018-Jun-02 13:30N 50°06' W 002°09'1020.6
2018-Jun-02 13:00N 50°09' W 001°53'1019.7
2018-Jun-02 12:30N 50°12' W 001°39'919.0
2018-Jun-02 12:00N 50°15' W 001°25'918.0
2018-Jun-02 11:31N 50°17' W 001°11'917.6
2018-Jun-02 11:01N 50°20' W 000°58'917.4
2018-Jun-02 10:30N 50°22' W 000°45'917.4
2018-Jun-02 10:00N 50°25' W 000°32'918.2
2018-Jun-02 09:31N 50°27' W 000°18'1019.0
2018-Jun-02 09:00N 50°30' W 000°03'1019.7
2018-Jun-02 08:29N 50°33' E 000°12'1020.5
2018-Jun-02 08:00N 50°36' E 000°27'1020.8
2018-Jun-02 07:31N 50°40' E 000°41'1121.4
2018-Jun-02 07:00N 50°46' E 000°56'1121.3
2018-Jun-02 06:30N 50°52' E 001°10'1121.0
2018-Jun-02 05:59N 50°59' E 001°23'1020.2
2018-Jun-02 05:30N 51°06' E 001°34'918.9
2018-Jun-02 05:00N 51°12' E 001°44'918.8
2018-Jun-02 04:30N 51°20' E 001°53'816.4
2018-Jun-02 04:00N 51°25' E 002°04'1019.4
2018-Jun-02 03:31N 51°21' E 002°18'917.8
2018-Jun-02 03:00N 51°23' E 002°32'713.7
2018-Jun-02 02:30N 51°23' E 002°43'611.4
2018-Jun-02 02:00N 51°23' E 002°52'814.0
2018-Jun-02 01:25N 51°24' E 003°05'614.0
2018-Jun-02 01:00N 51°25' E 003°14'714.4
2018-Jun-02 00:30N 51°25' E 003°26'613.0
2018-Jun-02 00:00N 51°26' E 003°36'5 9.0
2018-Jun-01 23:31N 51°28' E 003°42'1 1.3
2018-Jun-01 22:59N 51°29' E 003°42'0 0.0
2018-Jun-01 22:29N 51°29' E 003°42'0 0.0
2018-Jun-01 21:59N 51°29' E 003°42'0 0.0
2018-Jun-01 21:20N 51°29' E 003°42'0 0.0
2018-Jun-01 20:56N 51°29' E 003°42'0 0.0
2018-Jun-01 20:29N 51°29' E 003°42'0 0.0
2018-Jun-01 19:59N 51°29' E 003°42'0 0.0
2018-Jun-01 19:26N 51°29' E 003°42'0 0.0
2018-Jun-01 18:59N 51°29' E 003°42'0 0.0
2018-Jun-01 18:26N 51°29' E 003°42'0 0.0
2018-Jun-01 17:53N 51°29' E 003°42'0 0.0
2018-Jun-01 17:23N 51°29' E 003°42'0 0.0
2018-Jun-01 16:59N 51°29' E 003°42'0 0.0
2018-Jun-01 16:23N 51°29' E 003°42'0 0.0
2018-Jun-01 15:50N 51°29' E 003°42'0 0.0
2018-Jun-01 15:23N 51°29' E 003°42'0 0.0
2018-Jun-01 14:47N 51°29' E 003°42'0 0.0
2018-Jun-01 14:29N 51°29' E 003°42'0 0.0
2018-Jun-01 13:59N 51°29' E 003°42'0 0.0
2018-Jun-01 13:29N 51°29' E 003°42'0 0.0
2018-Jun-01 12:53N 51°29' E 003°42'0 0.0
2018-Jun-01 12:20N 51°29' E 003°42'0 0.0
2018-Jun-01 11:50N 51°29' E 003°42'0 0.0
2018-Jun-01 11:29N 51°29' E 003°42'0 0.0
2018-Jun-01 10:59N 51°29' E 003°42'0 0.0
2018-Jun-01 10:26N 51°29' E 003°42'0 0.0
2018-Jun-01 09:50N 51°29' E 003°42'0 0.0
2018-Jun-01 09:29N 51°29' E 003°42'0 0.0
2018-Jun-01 08:59N 51°29' E 003°42'0 0.0
2018-Jun-01 08:29N 51°29' E 003°42'0 0.0
2018-Jun-01 07:56N 51°29' E 003°42'0 0.0
2018-Jun-01 07:29N 51°29' E 003°42'0 0.0
2018-Jun-01 06:59N 51°29' E 003°42'0 0.0
2018-Jun-01 06:29N 51°29' E 003°42'0 0.0
2018-Jun-01 05:59N 51°29' E 003°42'0 0.0
2018-Jun-01 05:29N 51°29' E 003°42'0 0.0
2018-Jun-01 04:59N 51°29' E 003°42'0 0.0
2018-Jun-01 04:29N 51°29' E 003°42'0 0.0
2018-Jun-01 03:59N 51°29' E 003°42'0 0.0
2018-Jun-01 03:26N 51°29' E 003°42'0 0.0
2018-Jun-01 02:47N 51°29' E 003°42'0 0.0
2018-Jun-01 02:29N 51°29' E 003°42'0 0.0
2018-Jun-01 01:56N 51°29' E 003°42'0 0.0
2018-Jun-01 01:29N 51°29' E 003°42'0 0.0
2018-Jun-01 00:59N 51°29' E 003°42'0 0.0
2018-Jun-01 00:29N 51°29' E 003°42'0 0.0
2018-May-31 23:59N 51°29' E 003°42'0 0.0
2018-May-31 23:23N 51°29' E 003°42'0 0.0
2018-May-31 22:59N 51°29' E 003°42'0 0.0
2018-May-31 22:29N 51°29' E 003°42'0 0.0
2018-May-31 21:53N 51°29' E 003°42'0 0.0
2018-May-31 21:23N 51°29' E 003°42'0 0.0
2018-May-31 20:50N 51°29' E 003°42'0 0.0
2018-May-31 20:20N 51°29' E 003°42'0 0.0
2018-May-31 19:47N 51°29' E 003°42'0 0.0
2018-May-31 19:29N 51°29' E 003°42'0 0.0
2018-May-31 18:59N 51°29' E 003°42'0 0.0
2018-May-31 17:44N 51°29' E 003°42'0 0.0
2018-May-31 17:17N 51°29' E 003°42'0 0.0
2018-May-31 16:59N 51°29' E 003°42'0 0.0
2018-May-31 16:29N 51°29' E 003°42'0 0.0
2018-May-31 15:47N 51°29' E 003°42'0 0.0
2018-May-31 15:29N 51°29' E 003°42'0 0.0
2018-May-31 14:53N 51°29' E 003°42'0 0.0
2018-May-31 14:23N 51°29' E 003°42'0 0.0
2018-May-31 13:59N 51°29' E 003°42'0 0.0
2018-May-31 13:29N 51°29' E 003°42'0 0.0
2018-May-31 12:53N 51°29' E 003°42'0 0.0
2018-May-31 12:29N 51°29' E 003°42'0 0.0
2018-May-31 11:59N 51°29' E 003°42'0 0.0
2018-May-31 11:14N 51°29' E 003°42'0 0.0
2018-May-31 10:47N 51°29' E 003°42'0 0.0
2018-May-31 10:17N 51°29' E 003°42'0 0.0
2018-May-31 09:59N 51°29' E 003°42'0 0.0
2018-May-31 09:29N 51°29' E 003°42'0 0.0
2018-May-31 08:59N 51°29' E 003°42'0 0.0
2018-May-31 08:29N 51°29' E 003°42'0 0.0
2018-May-31 07:59N 51°29' E 003°42'0 0.0
2018-May-31 07:11N 51°29' E 003°42'0 0.0
2018-May-31 06:59N 51°29' E 003°42'0 0.0
2018-May-31 06:02N 51°29' E 003°42'0 0.0
2018-May-31 05:59N 51°29' E 003°42'0 0.0
2018-May-31 05:17N 51°29' E 003°42'0 0.0
2018-May-31 04:50N 51°29' E 003°42'0 0.0
2018-May-31 04:26N 51°29' E 003°42'0 0.0
2018-May-31 03:59N 51°29' E 003°42'0 0.0
2018-May-31 03:29N 51°29' E 003°42'0 0.0
2018-May-31 02:38N 51°29' E 003°42'0 0.0
2018-May-31 02:29N 51°29' E 003°42'0 0.0
2018-May-31 01:53N 51°29' E 003°42'0 0.0
2018-May-31 01:29N 51°29' E 003°42'0 0.0
2018-May-31 00:59N 51°29' E 003°42'0 0.0
2018-May-31 00:14N 51°29' E 003°42'0 0.0
2018-May-30 23:59N 51°29' E 003°42'0 0.0
2018-May-30 23:23N 51°29' E 003°42'0 0.1
2018-May-30 22:53N 51°29' E 003°42'0 0.0
2018-May-30 22:29N 51°29' E 003°42'0 0.0
2018-May-30 21:59N 51°29' E 003°42'0 0.0
2018-May-30 21:23N 51°29' E 003°42'0 0.0
2018-May-30 20:59N 51°29' E 003°42'0 0.0
2018-May-30 20:23N 51°29' E 003°42'0 0.0
2018-May-30 19:56N 51°29' E 003°42'0 0.0
2018-May-30 19:29N 51°29' E 003°42'0 0.0
2018-May-30 18:59N 51°29' E 003°42'0 0.0
2018-May-30 18:29N 51°29' E 003°42'0 0.0
2018-May-30 17:59N 51°29' E 003°42'0 0.0
2018-May-30 17:29N 51°29' E 003°42'0 0.0
2018-May-30 16:59N 51°29' E 003°42'0 0.0
2018-May-30 16:17N 51°29' E 003°42'0 0.0
2018-May-30 15:56N 51°29' E 003°42'0 0.0
2018-May-30 15:23N 51°29' E 003°42'0 0.0
2018-May-30 14:59N 51°29' E 003°42'0 0.0
2018-May-30 14:29N 51°29' E 003°42'0 0.0
2018-May-30 13:47N 51°29' E 003°42'0 0.0
2018-May-30 13:11N 51°29' E 003°42'0 0.0
2018-May-30 12:59N 51°29' E 003°42'0 0.0
2018-May-30 12:29N 51°29' E 003°42'0 0.0
2018-May-30 11:53N 51°29' E 003°42'0 0.0
2018-May-30 11:29N 51°29' E 003°42'0 0.0
2018-May-30 10:59N 51°29' E 003°42'0 0.0
2018-May-30 10:20N 51°29' E 003°42'0 0.0
2018-May-30 09:59N 51°29' E 003°42'0 0.0
2018-May-30 09:29N 51°29' E 003°42'0 0.0
2018-May-30 08:59N 51°29' E 003°42'0 0.0
2018-May-30 08:17N 51°29' E 003°42'0 0.0
2018-May-30 07:50N 51°29' E 003°42'0 0.0
2018-May-30 07:29N 51°29' E 003°42'0 0.0
2018-May-30 06:47N 51°29' E 003°42'0 0.0
2018-May-30 06:26N 51°29' E 003°42'0 0.0
2018-May-30 05:59N 51°29' E 003°42'0 0.0
2018-May-30 05:20N 51°29' E 003°42'0 0.0
2018-May-30 04:50N 51°29' E 003°42'0 0.0
2018-May-30 04:26N 51°29' E 003°42'0 0.0
2018-May-30 03:47N 51°29' E 003°42'0 0.0
2018-May-30 03:29N 51°29' E 003°42'0 0.0
2018-May-30 02:56N 51°29' E 003°42'0 0.0
2018-May-30 02:26N 51°29' E 003°42'0 0.0
2018-May-30 01:59N 51°29' E 003°42'0 0.0
2018-May-30 01:23N 51°29' E 003°42'0 0.0
2018-May-30 00:47N 51°29' E 003°42'0 0.0
2018-May-30 00:29N 51°29' E 003°42'0 0.0
2018-May-29 23:56N 51°29' E 003°42'0 0.0
2018-May-29 23:26N 51°29' E 003°42'0 0.0
2018-May-29 22:59N 51°29' E 003°42'0 0.0
2018-May-29 22:29N 51°29' E 003°42'0 0.0
2018-May-29 21:56N 51°29' E 003°42'0 0.0
2018-May-29 21:29N 51°29' E 003°42'0 0.0
2018-May-29 20:29N 51°29' E 003°42'0 0.0
2018-May-29 19:59N 51°29' E 003°42'0 0.0
2018-May-29 19:23N 51°29' E 003°42'0 0.4
2018-May-29 19:00N 51°28' E 003°42'2 4.8
2018-May-29 18:30N 51°27' E 003°40'4 8.6
2018-May-29 18:00N 51°25' E 003°33'611.6
2018-May-29 17:30N 51°25' E 003°24'713.5
2018-May-29 16:58N 51°24' E 003°13'714.3
2018-May-29 16:29N 51°24' E 003°02'715.4
2018-May-29 16:00N 51°22' E 002°50'714.2
2018-May-29 15:31N 51°22' E 002°39'611.0
2018-May-29 14:59N 51°22' E 002°30'817.3
2018-May-29 14:30N 51°18' E 002°18'815.8
2018-May-29 14:00N 51°20' E 002°06'815.1
2018-May-29 13:30N 51°26' E 001°57'713.2
2018-May-29 13:00N 51°30' E 001°49'917.0
2018-May-29 12:30N 51°29' E 001°35'611.1
2018-May-29 12:01N 51°27' E 001°27'714.1
2018-May-29 11:31N 51°29' E 001°16'3 0.2
2018-May-28 20:39N 51°29' E 001°12'316.9
2018-May-28 20:30N 51°29' E 001°16'816.3
2018-May-28 20:00N 51°27' E 001°28'4 8.7
2018-May-28 19:30N 51°24' E 001°33'3 5.5
2018-May-28 19:01N 51°23' E 001°37'4 8.5
2018-May-28 18:31N 51°20' E 001°41'3 6.5
2018-May-28 18:01N 51°16' E 001°39'3 6.7
2018-May-28 17:30N 51°13' E 001°38'3 6.3
2018-May-28 17:01N 51°10' E 001°36'4 7.6
2018-May-28 16:30N 51°07' E 001°39'511.0
2018-May-28 16:00N 51°02' E 001°35'714.2
2018-May-28 15:31N 50°57' E 001°28'713.8
2018-May-28 14:58N 50°50' E 001°24'714.2
2018-May-28 14:30N 50°43' E 001°22'713.8
2018-May-28 14:00N 50°38' E 001°15'914.1
2018-May-28 13:23N 50°33' E 001°04'614.6
2018-May-28 13:00N 50°29' E 000°57'915.1
2018-May-28 12:25N 50°27' E 000°43'915.3
2018-May-28 11:49N 50°25' E 000°30'413.2
2018-May-28 11:30N 50°24' E 000°23'713.4
2018-May-28 11:00N 50°22' E 000°13'713.8
2018-May-28 10:30N 50°20' E 000°03'713.8
2018-May-28 09:59N 50°19' W 000°08'713.7
2018-May-28 09:30N 50°17' W 000°18'714.4
2018-May-28 09:00N 50°16' W 000°30'1115.0
2018-May-28 08:17N 50°13' W 000°46'615.4
2018-May-28 07:55N 50°11' W 000°54'4116.0
2018-May-28 05:21N 50°00' W 001°56'1115.7
2018-May-28 04:40N 49°57' W 002°12'315.9
2018-May-28 04:31N 49°57' W 002°16'815.6
2018-May-28 04:01N 49°55' W 002°28'815.4
2018-May-28 03:30N 49°53' W 002°39'815.7
2018-May-28 03:00N 49°50' W 002°51'815.5
2018-May-28 02:29N 49°48' W 003°03'715.2
2018-May-28 02:01N 49°45' W 003°13'815.4
2018-May-28 01:31N 49°43' W 003°25'815.3
2018-May-28 01:01N 49°41' W 003°36'815.1
2018-May-28 00:30N 49°39' W 003°47'  

Dump ship's entire track history